createdAt,value
2018-08-02T00:00:29.233Z,19.52
2018-08-02T00:03:38.694Z,24.33
2018-08-02T00:06:48.672Z,19.00
2018-08-02T00:09:59.421Z,26.10
2018-08-02T00:13:10.017Z,21.05
2018-08-02T00:16:20.345Z,22.80
2018-08-02T00:19:30.401Z,25.27
2018-08-02T00:22:40.729Z,22.55
2018-08-02T00:25:50.735Z,18.77
2018-08-02T00:29:01.093Z,23.57
2018-08-02T00:32:11.591Z,22.17
2018-08-02T00:35:21.387Z,21.90
2018-08-02T00:38:31.572Z,22.20
2018-08-02T00:41:41.711Z,21.25
2018-08-02T00:44:51.734Z,21.70
2018-08-02T00:48:01.414Z,19.95
2018-08-02T00:51:11.652Z,30.43
2018-08-02T00:54:21.347Z,25.02
2018-08-02T00:57:31.154Z,24.12
2018-08-02T01:00:41.336Z,20.08
2018-08-02T01:03:51.478Z,22.25
2018-08-02T01:07:01.253Z,21.23
2018-08-02T01:10:11.345Z,24.90
2018-08-02T01:13:22.215Z,21.50
2018-08-02T01:16:32.200Z,18.90
2018-08-02T01:19:42.036Z,23.50
2018-08-02T01:22:52.085Z,20.75
2018-08-02T01:26:02.654Z,22.90
2018-08-02T01:29:12.589Z,23.32
2018-08-02T01:32:22.618Z,26.45
2018-08-02T01:35:33.073Z,22.85
2018-08-02T01:38:43.592Z,23.02
2018-08-02T01:41:54.425Z,23.05
2018-08-02T01:45:04.438Z,27.48
2018-08-02T01:48:14.890Z,24.23
2018-08-02T01:51:25.429Z,24.45
2018-08-02T01:54:35.441Z,22.02
2018-08-02T01:57:45.775Z,18.82
2018-08-02T02:00:56.184Z,35.95
2018-08-02T02:04:06.293Z,22.32
2018-08-02T02:07:16.235Z,28.35
2018-08-02T02:10:26.825Z,23.20
2018-08-02T02:13:37.037Z,20.60
2018-08-02T02:16:47.661Z,23.77
2018-08-02T02:19:57.721Z,23.30
2018-08-02T02:23:08.319Z,22.73
2018-08-02T02:26:20.030Z,24.12
2018-08-02T02:29:29.939Z,26.10
2018-08-02T02:32:40.079Z,21.75
2018-08-02T02:35:50.443Z,22.13
2018-08-02T02:39:00.698Z,21.20
2018-08-02T02:42:10.553Z,23.45
2018-08-02T02:45:20.471Z,20.90
2018-08-02T02:48:30.546Z,20.48
2018-08-02T02:51:40.265Z,23.62
2018-08-02T02:54:50.534Z,22.55
2018-08-02T02:58:00.781Z,22.60
2018-08-02T03:01:11.035Z,26.20
2018-08-02T03:04:20.734Z,26.57
2018-08-02T03:07:30.462Z,23.30
2018-08-02T03:10:41.057Z,22.30
2018-08-02T03:13:51.473Z,25.27
2018-08-02T03:17:02.337Z,19.50
2018-08-02T03:20:12.562Z,23.85
2018-08-02T03:23:22.368Z,19.98
2018-08-02T03:26:32.405Z,24.80
2018-08-02T03:29:42.056Z,21.35
2018-08-02T03:32:52.335Z,22.90
2018-08-02T03:36:02.114Z,23.92
2018-08-02T03:39:12.562Z,23.47
2018-08-02T03:42:22.555Z,27.48
2018-08-02T03:45:32.285Z,23.77
2018-08-02T03:48:42.632Z,25.50
2018-08-02T03:51:52.970Z,24.52
2018-08-02T03:55:02.833Z,25.95
2018-08-02T03:58:12.829Z,22.67
2018-08-02T04:01:23.419Z,25.05
2018-08-02T04:04:33.416Z,27.13
2018-08-02T04:07:43.418Z,29.35
2018-08-02T04:10:53.837Z,25.52
2018-08-02T04:14:04.824Z,23.92
2018-08-02T04:17:15.139Z,26.17
2018-08-02T04:20:25.531Z,26.55
2018-08-02T04:23:35.149Z,31.10
2018-08-02T04:26:45.169Z,28.38
2018-08-02T04:29:55.008Z,30.20
2018-08-02T04:33:04.922Z,27.58
2018-08-02T04:36:15.062Z,29.32
2018-08-02T04:39:25.229Z,31.93
2018-08-02T04:42:35.185Z,22.70
2018-08-02T04:45:44.859Z,23.65
2018-08-02T04:48:54.746Z,27.93
2018-08-02T04:52:05.328Z,36.45
2018-08-02T04:55:15.255Z,24.67
2018-08-02T04:58:25.655Z,29.98
2018-08-02T05:01:35.694Z,25.92
2018-08-02T05:04:45.490Z,28.87
2018-08-02T05:07:55.154Z,27.35
2018-08-02T05:11:05.415Z,29.35
2018-08-02T05:14:16.018Z,28.17
2018-08-02T05:17:26.544Z,29.30
2018-08-02T05:20:37.123Z,30.05
2018-08-02T05:23:47.168Z,24.90
2018-08-02T05:26:57.641Z,29.12
2018-08-02T05:30:08.010Z,26.70
2018-08-02T05:33:18.012Z,24.07
2018-08-02T05:36:28.191Z,26.05
2018-08-02T05:39:38.523Z,24.72
2018-08-02T05:42:48.393Z,29.63
2018-08-02T05:45:58.486Z,19.82
2018-08-02T05:49:08.506Z,26.85
2018-08-02T05:52:18.491Z,31.02
2018-08-02T05:55:29.059Z,37.70
2018-08-02T05:58:39.960Z,26.02
2018-08-02T06:01:49.721Z,27.10
2018-08-02T06:04:59.853Z,26.42
2018-08-02T06:08:10.337Z,25.37
2018-08-02T06:11:20.626Z,22.65
2018-08-02T06:18:05.467Z,22.87
2018-08-02T06:21:16.096Z,25.27
2018-08-02T06:24:41.554Z,24.20
2018-08-02T06:27:51.809Z,26.57
2018-08-02T06:31:02.089Z,22.15
2018-08-02T06:34:12.019Z,26.85
2018-08-02T06:37:22.276Z,24.45
2018-08-02T06:40:32.757Z,26.17
2018-08-02T06:43:43.166Z,24.80
2018-08-02T06:46:53.507Z,29.75
2018-08-02T06:50:03.196Z,30.68
2018-08-02T06:53:13.472Z,25.35
2018-08-02T06:56:23.299Z,28.98
2018-08-02T06:59:33.133Z,28.45
2018-08-02T07:02:43.509Z,30.87
2018-08-02T07:05:53.249Z,34.05
2018-08-02T07:09:05.683Z,32.10
2018-08-02T07:12:15.866Z,27.95
2018-08-02T07:15:26.759Z,31.73
2018-08-02T07:18:37.271Z,29.18
2018-08-02T07:21:47.369Z,34.93
2018-08-02T07:24:57.297Z,31.27
2018-08-02T07:28:07.810Z,30.00
2018-08-02T07:31:18.261Z,31.07
2018-08-02T07:34:28.100Z,31.40
2018-08-02T07:39:36.137Z,26.50
2018-08-02T07:42:45.512Z,29.67
2018-08-02T07:45:56.280Z,38.63
2018-08-02T07:49:06.053Z,29.60
2018-08-02T07:52:16.034Z,22.40
2018-08-02T07:55:25.725Z,22.77
2018-08-02T07:58:36.017Z,23.13
2018-08-02T08:01:49.941Z,20.57
2018-08-02T08:04:59.985Z,17.53
2018-08-02T08:08:10.586Z,15.53
2018-08-02T08:11:22.275Z,23.43
2018-08-02T08:14:32.837Z,18.53
2018-08-02T08:17:43.319Z,18.70
2018-08-02T08:20:53.985Z,24.10
2018-08-02T08:24:04.502Z,15.77
2018-08-02T08:27:14.590Z,22.67
2018-08-02T08:30:24.952Z,15.83
2018-08-02T08:33:35.371Z,17.53
2018-08-02T08:36:45.647Z,14.30
2018-08-02T08:39:55.858Z,15.23
2018-08-02T08:43:06.330Z,19.80
2018-08-02T08:46:17.089Z,15.23
2018-08-02T08:49:38.895Z,15.93
2018-08-02T08:52:49.306Z,16.70
2018-08-02T08:55:59.858Z,20.20
2018-08-02T08:59:21.567Z,23.33
2018-08-02T09:02:32.067Z,20.60
2018-08-02T09:05:43.264Z,15.57
2018-08-02T09:08:53.683Z,17.60
2018-08-02T09:12:03.580Z,19.03
2018-08-02T09:15:13.572Z,17.90
2018-08-02T09:18:24.306Z,18.67
2018-08-02T09:21:34.259Z,21.13
2018-08-02T09:24:44.404Z,14.93
2018-08-02T09:27:54.461Z,18.27
2018-08-02T09:31:05.200Z,17.60
2018-08-02T09:34:15.626Z,17.10
2018-08-02T09:37:25.794Z,18.47
2018-08-02T09:40:36.334Z,16.20
2018-08-02T09:43:46.492Z,15.40
2018-08-02T09:46:57.225Z,18.17
2018-08-02T09:50:07.552Z,16.87
2018-08-02T09:53:25.189Z,17.33
2018-08-02T09:56:35.949Z,16.23
2018-08-02T09:59:46.068Z,16.77
2018-08-02T10:02:56.058Z,16.77
2018-08-02T10:06:06.252Z,17.00
2018-08-02T10:09:17.060Z,18.97
2018-08-02T10:12:27.080Z,17.50
2018-08-02T10:15:37.200Z,16.40
2018-08-02T10:18:48.416Z,21.07
2018-08-02T10:21:58.470Z,22.10
2018-08-02T10:25:08.290Z,17.20
2018-08-02T10:28:18.361Z,18.83
2018-08-02T10:31:29.457Z,21.80
2018-08-02T10:34:39.721Z,18.17
2018-08-02T10:37:49.989Z,22.23
2018-08-02T10:41:00.195Z,17.97
2018-08-02T10:44:10.480Z,17.90
2018-08-02T10:47:20.684Z,14.63
2018-08-02T10:50:31.194Z,18.10
2018-08-02T10:53:41.597Z,18.03
2018-08-02T10:56:51.811Z,16.87
2018-08-02T11:00:02.231Z,21.53
2018-08-02T11:03:12.961Z,21.27
2018-08-02T11:06:23.274Z,17.87
2018-08-02T11:09:33.528Z,19.17
2018-08-02T11:12:44.105Z,20.30
2018-08-02T11:15:55.174Z,19.17
2018-08-02T11:19:06.206Z,22.10
2018-08-02T11:22:17.127Z,18.33
2018-08-02T11:25:27.813Z,17.43
2018-08-02T11:28:37.645Z,17.53
2018-08-02T11:31:48.383Z,15.70
2018-08-02T11:34:59.232Z,18.80
2018-08-02T11:38:09.847Z,15.70
2018-08-02T11:41:19.994Z,16.20
2018-08-02T11:44:35.927Z,22.10
2018-08-02T11:47:46.680Z,21.73
2018-08-02T11:50:57.010Z,15.17
2018-08-02T11:54:10.153Z,17.60
2018-08-02T11:57:20.382Z,15.30
2018-08-02T12:00:30.956Z,16.43
2018-08-02T12:03:41.548Z,16.50
2018-08-02T12:06:52.157Z,20.20
2018-08-02T12:10:02.254Z,18.70
2018-08-02T12:13:12.871Z,16.33
2018-08-02T12:16:23.609Z,17.57
2018-08-02T12:19:36.078Z,19.70
2018-08-02T12:22:47.993Z,15.13
2018-08-02T12:25:59.125Z,15.23
2018-08-02T12:29:11.406Z,16.50
2018-08-02T12:32:23.353Z,15.33
2018-08-02T12:35:35.122Z,18.10
2018-08-02T12:38:45.149Z,16.47
2018-08-02T12:41:55.322Z,16.60
2018-08-02T12:45:06.002Z,20.57
2018-08-02T12:48:16.160Z,19.13
2018-08-02T12:51:26.616Z,16.43
2018-08-02T12:54:36.402Z,15.20
2018-08-02T12:57:46.974Z,18.47
2018-08-02T13:00:57.092Z,15.50
2018-08-02T13:04:06.919Z,16.40
2018-08-02T13:07:19.448Z,24.53
2018-08-02T13:10:29.474Z,15.67
2018-08-02T13:13:40.101Z,19.43
2018-08-02T13:16:51.036Z,20.40
2018-08-02T13:20:01.406Z,15.07
2018-08-02T13:23:11.473Z,18.37
2018-08-02T13:26:21.525Z,21.23
2018-08-02T13:29:31.216Z,18.83
2018-08-02T13:32:41.583Z,19.50
2018-08-02T13:35:52.034Z,15.80
2018-08-02T13:39:02.446Z,18.63
2018-08-02T13:42:12.378Z,16.70
2018-08-02T13:45:22.889Z,17.37
2018-08-02T13:48:32.813Z,18.90
2018-08-02T13:51:43.163Z,17.97
2018-08-02T13:54:54.126Z,16.60
2018-08-02T13:58:04.042Z,21.70
2018-08-02T14:01:14.542Z,18.83
2018-08-02T14:04:24.640Z,17.50
2018-08-02T14:07:34.889Z,14.93
2018-08-02T14:10:44.854Z,16.07
2018-08-02T14:13:55.555Z,18.10
2018-08-02T14:17:06.445Z,17.33
2018-08-02T14:20:17.211Z,16.93
2018-08-02T14:23:27.539Z,26.83
2018-08-02T14:26:37.568Z,14.93
2018-08-02T14:29:47.799Z,16.53
2018-08-02T14:32:57.701Z,24.00
2018-08-02T14:36:09.894Z,17.10
2018-08-02T14:39:19.895Z,17.50
2018-08-02T14:42:29.829Z,18.13
2018-08-02T14:45:39.692Z,14.70
2018-08-02T14:48:49.740Z,16.23
2018-08-02T14:51:59.775Z,14.90
2018-08-02T14:55:10.027Z,16.97
2018-08-02T14:58:20.999Z,16.30
2018-08-02T15:01:30.887Z,15.77
2018-08-02T15:04:40.783Z,13.90
2018-08-02T15:07:50.926Z,16.40
2018-08-02T15:11:01.199Z,15.47
2018-08-02T15:14:11.544Z,18.33
2018-08-02T15:17:21.234Z,15.80
2018-08-02T15:20:31.274Z,16.87
2018-08-02T15:23:41.250Z,15.73
2018-08-02T15:26:51.533Z,16.17
2018-08-02T15:30:02.604Z,13.70
2018-08-02T15:33:12.952Z,16.43
2018-08-02T15:36:22.537Z,15.37
2018-08-02T15:39:32.874Z,15.10
2018-08-02T15:42:43.699Z,18.80
2018-08-02T15:45:53.737Z,17.97
2018-08-02T15:49:04.695Z,21.47
2018-08-02T15:52:16.305Z,28.40
2018-08-02T15:55:26.354Z,20.00
2018-08-02T15:58:36.688Z,18.27
2018-08-02T16:01:53.546Z,14.30
2018-08-02T16:05:05.499Z,23.53
2018-08-02T16:08:16.339Z,23.80
2018-08-02T16:11:27.138Z,14.37
2018-08-02T16:14:38.428Z,23.17
2018-08-02T16:17:49.575Z,19.07
2018-08-02T16:21:02.970Z,18.20
2018-08-02T16:24:14.063Z,19.87
2018-08-02T16:27:26.519Z,16.17
2018-08-02T16:30:36.985Z,15.53
2018-08-02T16:33:47.426Z,18.00
2018-08-02T16:37:09.720Z,27.67
2018-08-02T16:40:23.730Z,22.43
2018-08-02T16:43:34.100Z,16.00
2018-08-02T16:46:44.868Z,18.70
2018-08-02T16:49:55.865Z,15.20
2018-08-02T16:53:14.796Z,16.53
2018-08-02T16:56:25.637Z,18.77
2018-08-02T16:59:35.565Z,18.00
2018-08-02T17:02:46.558Z,20.57
2018-08-02T17:06:10.421Z,15.57
2018-08-02T17:09:21.392Z,16.10
2018-08-02T17:12:32.188Z,18.70
2018-08-02T17:15:42.754Z,15.63
2018-08-02T17:18:52.923Z,19.30
2018-08-02T17:22:03.936Z,15.23
2018-08-02T17:25:14.678Z,16.73
2018-08-02T17:28:24.918Z,24.23
2018-08-02T17:31:35.705Z,42.83
2018-08-02T17:34:45.989Z,19.63
2018-08-02T17:37:56.243Z,19.13
2018-08-02T17:41:12.074Z,18.27
2018-08-02T17:44:22.796Z,22.23
2018-08-02T17:47:32.825Z,16.90
2018-08-02T17:50:43.219Z,15.77
2018-08-02T17:53:53.589Z,18.27
2018-08-02T17:57:03.758Z,20.60
2018-08-02T18:00:13.876Z,19.47
2018-08-02T18:03:24.064Z,16.63
2018-08-02T18:06:34.910Z,25.90
2018-08-02T18:09:45.648Z,16.93
2018-08-02T18:12:55.754Z,15.23
2018-08-02T18:16:05.618Z,17.30
2018-08-02T18:19:17.691Z,17.63
2018-08-02T18:22:28.064Z,16.40
2018-08-02T18:25:38.028Z,16.13
2018-08-02T18:28:48.199Z,15.07
2018-08-02T18:31:59.500Z,15.17
2018-08-02T18:35:11.214Z,16.30
2018-08-02T18:38:28.942Z,15.63
2018-08-02T18:41:39.349Z,16.67
2018-08-02T18:44:49.304Z,14.50
2018-08-02T18:47:59.253Z,15.90
2018-08-02T18:51:10.381Z,14.53
2018-08-02T18:54:20.335Z,17.97
2018-08-02T18:57:30.344Z,14.23
2018-08-02T19:00:41.511Z,16.67
2018-08-02T19:03:52.213Z,12.87
2018-08-02T19:07:03.448Z,17.13
2018-08-02T19:10:14.800Z,20.47
2018-08-02T19:13:24.805Z,14.57
2018-08-02T19:16:35.479Z,15.10
2018-08-02T19:19:45.821Z,15.97
2018-08-02T19:22:56.098Z,14.40
2018-08-02T19:26:06.605Z,14.53
2018-08-02T19:29:16.384Z,18.87
2018-08-02T19:32:26.761Z,14.67
2018-08-02T19:35:36.697Z,15.80
2018-08-02T19:38:46.944Z,18.83
2018-08-02T19:41:57.097Z,15.20
2018-08-02T19:45:07.598Z,12.73
2018-08-02T19:48:18.195Z,15.00
2018-08-02T19:51:28.427Z,18.80
2018-08-02T19:54:39.247Z,17.90
2018-08-02T19:57:49.596Z,15.67
2018-08-02T20:00:59.872Z,17.10
2018-08-02T20:04:10.049Z,15.03
2018-08-02T20:07:20.668Z,13.10
2018-08-02T20:10:30.550Z,14.40
2018-08-02T20:13:40.842Z,14.30
2018-08-02T20:16:51.449Z,14.10
2018-08-02T20:20:01.295Z,17.63
2018-08-02T20:23:11.672Z,14.10
2018-08-02T20:26:21.275Z,23.50
2018-08-02T20:29:31.838Z,18.80
2018-08-02T20:32:41.534Z,15.23
2018-08-02T20:35:52.001Z,17.90
2018-08-02T20:39:02.466Z,15.40
2018-08-02T20:42:12.267Z,15.30
2018-08-02T20:45:22.293Z,14.37
2018-08-02T20:48:31.943Z,14.87
2018-08-02T20:51:42.158Z,16.87
2018-08-02T20:54:52.407Z,19.63
2018-08-02T20:58:03.006Z,15.47
2018-08-02T21:01:13.517Z,15.73
2018-08-02T21:04:23.501Z,16.17
2018-08-02T21:07:34.120Z,15.77
2018-08-02T21:10:44.208Z,15.97
2018-08-02T21:13:54.514Z,16.90
2018-08-02T21:17:04.949Z,12.77
2018-08-02T21:20:14.852Z,17.67
2018-08-02T21:23:25.808Z,15.70
2018-08-02T21:26:36.341Z,15.60
2018-08-02T21:29:46.513Z,15.17
2018-08-02T21:32:56.345Z,15.73
2018-08-02T21:36:06.787Z,15.53
2018-08-02T21:39:17.238Z,19.73
2018-08-02T21:42:27.402Z,14.90
2018-08-02T21:45:37.838Z,15.33
2018-08-02T21:48:47.881Z,21.33
2018-08-02T21:51:58.273Z,14.30
2018-08-02T21:55:08.769Z,15.90
2018-08-02T21:58:18.625Z,17.10
2018-08-02T22:01:29.033Z,14.40
2018-08-02T22:04:39.166Z,14.97
2018-08-02T22:07:49.284Z,17.53
2018-08-02T22:10:59.829Z,18.50
2018-08-02T22:14:15.739Z,19.43
2018-08-02T22:17:25.868Z,18.03
2018-08-02T22:20:35.990Z,16.10
2018-08-02T22:23:45.933Z,18.90
2018-08-02T22:26:55.988Z,18.33
2018-08-02T22:30:06.305Z,16.13
2018-08-02T22:33:16.056Z,21.40
2018-08-02T22:36:26.133Z,16.23
2018-08-02T22:39:35.786Z,18.20
2018-08-02T22:42:45.880Z,19.25
2018-08-02T22:45:56.401Z,18.97
2018-08-02T22:49:06.175Z,18.40
2018-08-02T22:52:16.220Z,17.13
2018-08-02T22:55:26.227Z,21.13
2018-08-02T22:58:36.306Z,17.97
2018-08-02T23:01:46.134Z,18.30
2018-08-02T23:04:55.981Z,20.80
2018-08-02T23:08:06.717Z,22.53
2018-08-02T23:11:16.868Z,18.43
2018-08-02T23:14:26.860Z,24.40
2018-08-02T23:17:37.306Z,15.37
2018-08-02T23:20:47.702Z,15.90
2018-08-02T23:23:57.847Z,17.33
2018-08-02T23:27:08.316Z,15.50
2018-08-02T23:30:18.563Z,19.07
2018-08-02T23:33:28.906Z,17.13
2018-08-02T23:36:38.887Z,22.93
2018-08-02T23:39:48.804Z,18.70
2018-08-02T23:42:59.027Z,20.33
2018-08-02T23:46:09.714Z,20.53
2018-08-02T23:49:20.064Z,18.75
2018-08-02T23:52:29.787Z,18.50
2018-08-02T23:55:39.741Z,18.93
2018-08-02T23:58:49.425Z,18.27
